sensor_id;sensor_type;location;lat;lon;timestamp;temperature;humidity
19654;DHT22;9975;48.046;7.804;2023-07-30T01:56:31;19.30;99.90
19654;DHT22;9975;48.046;7.804;2023-07-30T01:58:57;19.40;99.90
19654;DHT22;9975;48.046;7.804;2023-07-30T02:01:23;19.40;99.90
19654;DHT22;9975;48.046;7.804;2023-07-30T02:03:48;19.40;99.90
19654;DHT22;9975;48.046;7.804;2023-07-30T02:06:14;19.40;99.90
19654;DHT22;9975;48.046;7.804;2023-07-30T02:08:39;19.40;99.90
19654;DHT22;9975;48.046;7.804;2023-07-30T02:11:05;19.30;99.90
19654;DHT22;9975;48.046;7.804;2023-07-30T02:13:31;19.30;99.90
19654;DHT22;9975;48.046;7.804;2023-07-30T02:15:56;19.30;99.90
19654;DHT22;9975;48.046;7.804;2023-07-30T02:18:22;19.30;99.90
19654;DHT22;9975;48.046;7.804;2023-07-30T02:20:47;19.30;99.90
19654;DHT22;9975;48.046;7.804;2023-07-30T02:23:15;19.30;99.90
19654;DHT22;9975;48.046;7.804;2023-07-30T02:25:43;19.20;99.90
19654;DHT22;9975;48.046;7.804;2023-07-30T02:28:09;19.30;99.90
19654;DHT22;9975;48.046;7.804;2023-07-30T02:30:34;19.30;99.90
19654;DHT22;9975;48.046;7.804;2023-07-30T02:33:01;19.20;99.90
19654;DHT22;9975;48.046;7.804;2023-07-30T02:35:26;19.20;99.90
19654;DHT22;9975;48.046;7.804;2023-07-30T02:37:52;19.20;99.90
19654;DHT22;9975;48.046;7.804;2023-07-30T02:40:18;19.20;99.90
19654;DHT22;9975;48.046;7.804;2023-07-30T02:42:43;19.20;99.90
19654;DHT22;9975;48.046;7.804;2023-07-30T02:45:09;19.20;99.90
19654;DHT22;9975;48.046;7.804;2023-07-30T02:47:35;19.20;99.90
19654;DHT22;9975;48.046;7.804;2023-07-30T02:50:02;19.10;99.90
19654;DHT22;9975;48.046;7.804;2023-07-30T02:52:28;19.10;99.90
19654;DHT22;9975;48.046;7.804;2023-07-30T02:54:54;19.10;99.90
19654;DHT22;9975;48.046;7.804;2023-07-30T02:57:19;19.10;99.90
19654;DHT22;9975;48.046;7.804;2023-07-30T02:59:45;19.10;99.90
19654;DHT22;9975;48.046;7.804;2023-07-30T03:02:10;19.10;99.90
19654;DHT22;9975;48.046;7.804;2023-07-30T03:04:36;19.10;99.90
19654;DHT22;9975;48.046;7.804;2023-07-30T03:07:02;19.10;99.90
19654;DHT22;9975;48.046;7.804;2023-07-30T03:09:27;19.10;99.90
19654;DHT22;9975;48.046;7.804;2023-07-30T03:11:53;19.10;99.90
19654;DHT22;9975;48.046;7.804;2023-07-30T03:14:19;19.10;99.90
19654;DHT22;9975;48.046;7.804;2023-07-30T03:16:48;19.10;99.90
19654;DHT22;9975;48.046;7.804;2023-07-30T03:19:14;19.10;99.90
19654;DHT22;9975;48.046;7.804;2023-07-30T03:21:40;19.10;99.90
19654;DHT22;9975;48.046;7.804;2023-07-30T03:24:06;19.10;99.90
19654;DHT22;9975;48.046;7.804;2023-07-30T03:26:32;19.10;99.90
19654;DHT22;9975;48.046;7.804;2023-07-30T03:28:57;19.10;99.90
19654;DHT22;9975;48.046;7.804;2023-07-30T03:31:23;19.10;99.90
19654;DHT22;9975;48.046;7.804;2023-07-30T03:33:49;19.10;99.90
19654;DHT22;9975;48.046;7.804;2023-07-30T03:36:14;19.10;99.90
19654;DHT22;9975;48.046;7.804;2023-07-30T03:38:41;19.10;99.90
19654;DHT22;9975;48.046;7.804;2023-07-30T03:41:07;19.00;99.90
19654;DHT22;9975;48.046;7.804;2023-07-30T03:43:50;19.00;99.90
19654;DHT22;9975;48.046;7.804;2023-07-30T03:46:16;19.00;99.90
19654;DHT22;9975;48.046;7.804;2023-07-30T03:48:42;19.00;99.90
19654;DHT22;9975;48.046;7.804;2023-07-30T03:51:08;19.00;99.90
19654;DHT22;9975;48.046;7.804;2023-07-30T03:53:34;18.90;99.90
19654;DHT22;9975;48.046;7.804;2023-07-30T03:55:59;18.90;99.90
19654;DHT22;9975;48.046;7.804;2023-07-30T03:58:25;18.90;99.90
19654;DHT22;9975;48.046;7.804;2023-07-30T04:00:50;18.90;99.90
19654;DHT22;9975;48.046;7.804;2023-07-30T04:03:16;18.90;99.90
19654;DHT22;9975;48.046;7.804;2023-07-30T04:05:41;18.90;99.90
19654;DHT22;9975;48.046;7.804;2023-07-30T04:08:07;18.20;99.90
19654;DHT22;9975;48.046;7.804;2023-07-30T04:10:33;18.90;99.90
19654;DHT22;9975;48.046;7.804;2023-07-30T04:12:59;18.80;99.90
19654;DHT22;9975;48.046;7.804;2023-07-30T04:15:24;18.80;99.90
19654;DHT22;9975;48.046;7.804;2023-07-30T04:17:50;18.80;99.90
19654;DHT22;9975;48.046;7.804;2023-07-30T04:20:16;18.80;99.90
19654;DHT22;9975;48.046;7.804;2023-07-30T04:22:43;18.80;99.90
19654;DHT22;9975;48.046;7.804;2023-07-30T04:25:09;18.80;99.90
19654;DHT22;9975;48.046;7.804;2023-07-30T04:27:36;18.80;99.90
19654;DHT22;9975;48.046;7.804;2023-07-30T04:30:02;18.70;99.90
19654;DHT22;9975;48.046;7.804;2023-07-30T04:32:27;18.70;99.90
19654;DHT22;9975;48.046;7.804;2023-07-30T04:34:53;18.80;99.90
19654;DHT22;9975;48.046;7.804;2023-07-30T04:37:18;18.80;99.90
19654;DHT22;9975;48.046;7.804;2023-07-30T04:39:44;18.80;99.90
19654;DHT22;9975;48.046;7.804;2023-07-30T04:42:10;18.80;99.90
19654;DHT22;9975;48.046;7.804;2023-07-30T04:44:35;18.80;99.90
19654;DHT22;9975;48.046;7.804;2023-07-30T04:47:01;18.80;99.90
19654;DHT22;9975;48.046;7.804;2023-07-30T04:49:26;18.80;99.90
19654;DHT22;9975;48.046;7.804;2023-07-30T04:51:52;18.90;99.90
19654;DHT22;9975;48.046;7.804;2023-07-30T04:54:17;18.90;99.90
19654;DHT22;9975;48.046;7.804;2023-07-30T04:56:43;18.90;99.90
19654;DHT22;9975;48.046;7.804;2023-07-30T04:59:09;18.90;99.90
19654;DHT22;9975;48.046;7.804;2023-07-30T05:01:34;19.00;99.90
19654;DHT22;9975;48.046;7.804;2023-07-30T05:04:00;19.10;99.90
19654;DHT22;9975;48.046;7.804;2023-07-30T05:06:25;19.10;99.90
19654;DHT22;9975;48.046;7.804;2023-07-30T05:08:51;19.10;99.90
19654;DHT22;9975;48.046;7.804;2023-07-30T05:11:17;19.20;99.90
19654;DHT22;9975;48.046;7.804;2023-07-30T05:13:42;19.20;99.90
19654;DHT22;9975;48.046;7.804;2023-07-30T05:16:08;19.20;99.90
19654;DHT22;9975;48.046;7.804;2023-07-30T05:18:33;19.30;99.90
19654;DHT22;9975;48.046;7.804;2023-07-30T05:20:59;19.30;99.90
19654;DHT22;9975;48.046;7.804;2023-07-30T05:23:24;19.30;99.90
19654;DHT22;9975;48.046;7.804;2023-07-30T05:25:50;19.30;99.90
19654;DHT22;9975;48.046;7.804;2023-07-30T05:28:16;19.30;99.90
19654;DHT22;9975;48.046;7.804;2023-07-30T05:30:41;19.30;99.90
19654;DHT22;9975;48.046;7.804;2023-07-30T05:33:07;19.40;99.90
19654;DHT22;9975;48.046;7.804;2023-07-30T05:35:32;19.40;99.90
19654;DHT22;9975;48.046;7.804;2023-07-30T05:37:58;19.40;99.90
19654;DHT22;9975;48.046;7.804;2023-07-30T05:40:23;19.40;99.90
19654;DHT22;9975;48.046;7.804;2023-07-30T05:42:49;19.40;99.90
19654;DHT22;9975;48.046;7.804;2023-07-30T05:45:15;19.50;99.90
19654;DHT22;9975;48.046;7.804;2023-07-30T05:47:40;19.50;99.90
19654;DHT22;9975;48.046;7.804;2023-07-30T05:50:07;19.50;99.90
19654;DHT22;9975;48.046;7.804;2023-07-30T05:52:33;19.60;99.90
19654;DHT22;9975;48.046;7.804;2023-07-30T05:54:59;19.50;99.90
19654;DHT22;9975;48.046;7.804;2023-07-30T05:57:24;19.50;99.90
19654;DHT22;9975;48.046;7.804;2023-07-30T05:59:50;19.50;99.90
19654;DHT22;9975;48.046;7.804;2023-07-30T06:02:16;19.60;99.90
19654;DHT22;9975;48.046;7.804;2023-07-30T06:04:42;19.60;99.90
19654;DHT22;9975;48.046;7.804;2023-07-30T06:07:07;19.60;99.90
19654;DHT22;9975;48.046;7.804;2023-07-30T06:09:33;19.70;99.90
19654;DHT22;9975;48.046;7.804;2023-07-30T06:11:59;19.80;99.90
19654;DHT22;9975;48.046;7.804;2023-07-30T06:14:25;19.90;99.90
19654;DHT22;9975;48.046;7.804;2023-07-30T06:16:51;19.90;99.90
19654;DHT22;9975;48.046;7.804;2023-07-30T06:19:17;20.00;99.90
19654;DHT22;9975;48.046;7.804;2023-07-30T06:21:43;20.10;99.90
19654;DHT22;9975;48.046;7.804;2023-07-30T06:24:08;20.20;99.90
19654;DHT22;9975;48.046;7.804;2023-07-30T06:26:34;20.30;99.90
19654;DHT22;9975;48.046;7.804;2023-07-30T06:29:00;20.30;99.90
19654;DHT22;9975;48.046;7.804;2023-07-30T06:31:25;20.30;99.90
19654;DHT22;9975;48.046;7.804;2023-07-30T06:33:51;20.50;99.90
19654;DHT22;9975;48.046;7.804;2023-07-30T06:36:16;20.50;99.90
19654;DHT22;9975;48.046;7.804;2023-07-30T06:38:42;20.50;99.90
19654;DHT22;9975;48.046;7.804;2023-07-30T06:41:08;20.60;99.90
19654;DHT22;9975;48.046;7.804;2023-07-30T06:43:33;20.60;99.90
19654;DHT22;9975;48.046;7.804;2023-07-30T06:45:59;20.60;99.90
19654;DHT22;9975;48.046;7.804;2023-07-30T06:48:24;20.70;99.90
19654;DHT22;9975;48.046;7.804;2023-07-30T06:50:50;20.60;99.90
19654;DHT22;9975;48.046;7.804;2023-07-30T06:53:16;20.60;99.90
19654;DHT22;9975;48.046;7.804;2023-07-30T06:55:41;20.50;99.90
19654;DHT22;9975;48.046;7.804;2023-07-30T06:58:07;20.50;99.90
19654;DHT22;9975;48.046;7.804;2023-07-30T07:00:32;20.60;99.90
19654;DHT22;9975;48.046;7.804;2023-07-30T07:02:58;20.70;99.90
19654;DHT22;9975;48.046;7.804;2023-07-30T07:05:24;20.90;99.90
19654;DHT22;9975;48.046;7.804;2023-07-30T07:07:49;21.10;99.90
19654;DHT22;9975;48.046;7.804;2023-07-30T07:10:15;21.20;99.90
19654;DHT22;9975;48.046;7.804;2023-07-30T07:12:41;21.40;99.90
19654;DHT22;9975;48.046;7.804;2023-07-30T07:15:07;21.30;99.90
19654;DHT22;9975;48.046;7.804;2023-07-30T07:17:33;21.30;99.90
19654;DHT22;9975;48.046;7.804;2023-07-30T07:19:58;21.50;99.90
19654;DHT22;9975;48.046;7.804;2023-07-30T07:22:24;21.60;99.90
19654;DHT22;9975;48.046;7.804;2023-07-30T07:24:53;21.60;99.90
19654;DHT22;9975;48.046;7.804;2023-07-30T07:27:19;21.70;99.90
19654;DHT22;9975;48.046;7.804;2023-07-30T07:29:45;21.70;99.90
19654;DHT22;9975;48.046;7.804;2023-07-30T07:32:10;21.80;99.90
19654;DHT22;9975;48.046;7.804;2023-07-30T07:34:36;21.80;99.90
19654;DHT22;9975;48.046;7.804;2023-07-30T07:37:02;21.70;99.90
19654;DHT22;9975;48.046;7.804;2023-07-30T07:39:28;22.90;99.90
19654;DHT22;9975;48.046;7.804;2023-07-30T07:41:55;21.70;99.90
19654;DHT22;9975;48.046;7.804;2023-07-30T07:44:20;21.80;99.90
19654;DHT22;9975;48.046;7.804;2023-07-30T07:46:47;21.60;99.90
19654;DHT22;9975;48.046;7.804;2023-07-30T07:49:12;21.70;99.90
19654;DHT22;9975;48.046;7.804;2023-07-30T07:51:38;21.70;99.90
19654;DHT22;9975;48.046;7.804;2023-07-30T07:54:04;21.80;99.90
19654;DHT22;9975;48.046;7.804;2023-07-30T07:56:30;22.00;99.90
19654;DHT22;9975;48.046;7.804;2023-07-30T07:58:57;21.90;99.90
19654;DHT22;9975;48.046;7.804;2023-07-30T08:01:22;22.10;99.90
19654;DHT22;9975;48.046;7.804;2023-07-30T08:03:48;22.20;99.90
19654;DHT22;9975;48.046;7.804;2023-07-30T08:06:13;22.10;99.90
19654;DHT22;9975;48.046;7.804;2023-07-30T08:08:39;22.10;99.90
19654;DHT22;9975;48.046;7.804;2023-07-30T08:11:08;22.10;99.90
19654;DHT22;9975;48.046;7.804;2023-07-30T08:13:35;22.20;99.90
19654;DHT22;9975;48.046;7.804;2023-07-30T08:16:01;22.30;99.90
19654;DHT22;9975;48.046;7.804;2023-07-30T08:18:27;22.30;99.90
19654;DHT22;9975;48.046;7.804;2023-07-30T08:20:53;22.30;99.90
19654;DHT22;9975;48.046;7.804;2023-07-30T08:23:19;22.20;99.90
19654;DHT22;9975;48.046;7.804;2023-07-30T08:25:44;22.10;99.90
19654;DHT22;9975;48.046;7.804;2023-07-30T08:28:10;22.00;99.90
19654;DHT22;9975;48.046;7.804;2023-07-30T08:30:35;22.20;99.90
19654;DHT22;9975;48.046;7.804;2023-07-30T08:33:01;22.00;99.90
19654;DHT22;9975;48.046;7.804;2023-07-30T08:35:27;22.00;99.90
19654;DHT22;9975;48.046;7.804;2023-07-30T08:37:53;22.00;99.90
19654;DHT22;9975;48.046;7.804;2023-07-30T08:40:21;22.10;99.90
19654;DHT22;9975;48.046;7.804;2023-07-30T08:42:52;22.10;99.90
19654;DHT22;9975;48.046;7.804;2023-07-30T08:45:19;22.10;99.90
19654;DHT22;9975;48.046;7.804;2023-07-30T08:47:46;22.20;99.90
19654;DHT22;9975;48.046;7.804;2023-07-30T08:50:11;22.30;99.90
19654;DHT22;9975;48.046;7.804;2023-07-30T08:52:37;22.40;99.90
19654;DHT22;9975;48.046;7.804;2023-07-30T08:55:04;22.50;99.90
19654;DHT22;9975;48.046;7.804;2023-07-30T08:57:31;22.70;99.90
19654;DHT22;9975;48.046;7.804;2023-07-30T09:00:05;22.90;99.90
19654;DHT22;9975;48.046;7.804;2023-07-30T09:05:11;22.90;99.90
19654;DHT22;9975;48.046;7.804;2023-07-30T09:07:37;22.10;96.80
19654;DHT22;9975;48.046;7.804;2023-07-30T09:10:03;23.10;96.90
19654;DHT22;9975;48.046;7.804;2023-07-30T09:12:29;23.10;95.70
19654;DHT22;9975;48.046;7.804;2023-07-30T09:14:56;23.20;92.40
19654;DHT22;9975;48.046;7.804;2023-07-30T09:17:21;23.50;90.50
19654;DHT22;9975;48.046;7.804;2023-07-30T09:19:47;23.50;87.30
19654;DHT22;9975;48.046;7.804;2023-07-30T09:22:13;23.50;85.70
19654;DHT22;9975;48.046;7.804;2023-07-30T09:24:44;23.60;80.60
19654;DHT22;9975;48.046;7.804;2023-07-30T09:27:10;23.80;78.70
19654;DHT22;9975;48.046;7.804;2023-07-30T09:29:36;23.70;79.60
19654;DHT22;9975;48.046;7.804;2023-07-30T09:32:02;23.90;77.60
19654;DHT22;9975;48.046;7.804;2023-07-30T09:34:27;24.10;74.10
19654;DHT22;9975;48.046;7.804;2023-07-30T09:36:55;24.10;71.60
19654;DHT22;9975;48.046;7.804;2023-07-30T09:39:25;24.10;68.60
19654;DHT22;9975;48.046;7.804;2023-07-30T09:41:53;24.10;67.60
19654;DHT22;9975;48.046;7.804;2023-07-30T09:44:24;24.10;66.80
19654;DHT22;9975;48.046;7.804;2023-07-30T09:46:50;24.30;64.30
19654;DHT22;9975;48.046;7.804;2023-07-30T09:49:17;24.70;62.50
19654;DHT22;9975;48.046;7.804;2023-07-30T09:51:43;24.70;61.40
19654;DHT22;9975;48.046;7.804;2023-07-30T09:54:12;24.60;58.20
19654;DHT22;9975;48.046;7.804;2023-07-30T09:56:39;24.60;58.50
19654;DHT22;9975;48.046;7.804;2023-07-30T09:59:05;24.40;58.40
19654;DHT22;9975;48.046;7.804;2023-07-30T10:01:34;24.30;60.10
19654;DHT22;9975;48.046;7.804;2023-07-30T10:04:07;24.50;59.70
19654;DHT22;9975;48.046;7.804;2023-07-30T10:06:33;24.80;59.40
19654;DHT22;9975;48.046;7.804;2023-07-30T10:09:01;24.60;59.90
19654;DHT22;9975;48.046;7.804;2023-07-30T10:11:28;24.30;61.40
19654;DHT22;9975;48.046;7.804;2023-07-30T10:13:54;24.50;62.90
19654;DHT22;9975;48.046;7.804;2023-07-30T10:16:26;24.30;60.60
19654;DHT22;9975;48.046;7.804;2023-07-30T10:18:56;24.30;59.40
19654;DHT22;9975;48.046;7.804;2023-07-30T10:21:24;24.10;61.10
19654;DHT22;9975;48.046;7.804;2023-07-30T10:23:59;24.10;63.30
19654;DHT22;9975;48.046;7.804;2023-07-30T10:26:30;24.20;64.00
19654;DHT22;9975;48.046;7.804;2023-07-30T10:29:17;24.40;62.60
19654;DHT22;9975;48.046;7.804;2023-07-30T10:31:54;24.00;66.10
19654;DHT22;9975;48.046;7.804;2023-07-30T10:34:21;24.10;67.50
19654;DHT22;9975;48.046;7.804;2023-07-30T10:36:49;24.20;68.50
19654;DHT22;9975;48.046;7.804;2023-07-30T10:39:19;23.90;67.10
19654;DHT22;9975;48.046;7.804;2023-07-30T10:41:53;23.80;67.90
19654;DHT22;9975;48.046;7.804;2023-07-30T10:44:25;23.80;69.60
19654;DHT22;9975;48.046;7.804;2023-07-30T10:46:53;23.60;70.10
19654;DHT22;9975;48.046;7.804;2023-07-30T10:49:19;23.30;70.70
19654;DHT22;9975;48.046;7.804;2023-07-30T10:51:44;23.40;70.70
19654;DHT22;9975;48.046;7.804;2023-07-30T10:54:10;23.80;70.90
19654;DHT22;9975;48.046;7.804;2023-07-30T10:56:36;23.90;68.80
19654;DHT22;9975;48.046;7.804;2023-07-30T10:59:06;24.10;70.40
19654;DHT22;9975;48.046;7.804;2023-07-30T11:01:40;24.20;68.40
19654;DHT22;9975;48.046;7.804;2023-07-30T11:04:08;24.10;65.90
19654;DHT22;9975;48.046;7.804;2023-07-30T11:06:34;24.10;65.80
19654;DHT22;9975;48.046;7.804;2023-07-30T11:08:59;24.10;66.10
19654;DHT22;9975;48.046;7.804;2023-07-30T11:11:25;24.10;66.90
19654;DHT22;9975;48.046;7.804;2023-07-30T11:13:51;23.70;66.90
19654;DHT22;9975;48.046;7.804;2023-07-30T11:16:17;23.50;67.40
19654;DHT22;9975;48.046;7.804;2023-07-30T11:18:43;23.60;68.20
19654;DHT22;9975;48.046;7.804;2023-07-30T11:21:10;23.60;67.80
19654;DHT22;9975;48.046;7.804;2023-07-30T11:23:38;23.70;68.80
19654;DHT22;9975;48.046;7.804;2023-07-30T11:26:05;23.90;69.40
19654;DHT22;9975;48.046;7.804;2023-07-30T11:28:33;24.00;70.00
19654;DHT22;9975;48.046;7.804;2023-07-30T11:31:07;23.90;68.50
19654;DHT22;9975;48.046;7.804;2023-07-30T11:33:38;24.10;69.70
19654;DHT22;9975;48.046;7.804;2023-07-30T11:36:04;24.30;69.10
19654;DHT22;9975;48.046;7.804;2023-07-30T11:38:30;24.10;68.40
19654;DHT22;9975;48.046;7.804;2023-07-30T11:40:57;24.10;67.00
19654;DHT22;9975;48.046;7.804;2023-07-30T11:43:23;24.10;67.90
19654;DHT22;9975;48.046;7.804;2023-07-30T11:46:04;24.00;65.40
19654;DHT22;9975;48.046;7.804;2023-07-30T11:48:31;23.90;68.10
19654;DHT22;9975;48.046;7.804;2023-07-30T11:50:56;23.90;65.90
19654;DHT22;9975;48.046;7.804;2023-07-30T11:53:22;23.80;66.40
19654;DHT22;9975;48.046;7.804;2023-07-30T11:56:18;24.00;65.10
19654;DHT22;9975;48.046;7.804;2023-07-30T11:58:44;24.00;64.50
19654;DHT22;9975;48.046;7.804;2023-07-30T12:01:10;24.00;63.50
19654;DHT22;9975;48.046;7.804;2023-07-30T12:03:37;24.00;63.90
19654;DHT22;9975;48.046;7.804;2023-07-30T12:06:06;24.10;64.50
19654;DHT22;9975;48.046;7.804;2023-07-30T12:08:34;24.10;64.20
19654;DHT22;9975;48.046;7.804;2023-07-30T12:11:05;23.90;63.80
19654;DHT22;9975;48.046;7.804;2023-07-30T12:13:32;23.90;63.50
19654;DHT22;9975;48.046;7.804;2023-07-30T12:15:58;23.90;62.70
19654;DHT22;9975;48.046;7.804;2023-07-30T12:18:24;23.70;60.70
19654;DHT22;9975;48.046;7.804;2023-07-30T12:20:52;23.50;61.20
19654;DHT22;9975;48.046;7.804;2023-07-30T12:23:19;23.70;60.40
19654;DHT22;9975;48.046;7.804;2023-07-30T12:25:46;24.10;61.70
19654;DHT22;9975;48.046;7.804;2023-07-30T12:28:12;24.10;59.80
19654;DHT22;9975;48.046;7.804;2023-07-30T12:30:38;24.00;60.90
19654;DHT22;9975;48.046;7.804;2023-07-30T12:33:04;23.90;61.90
19654;DHT22;9975;48.046;7.804;2023-07-30T12:35:31;24.20;63.50
19654;DHT22;9975;48.046;7.804;2023-07-30T12:37:57;24.20;62.00
19654;DHT22;9975;48.046;7.804;2023-07-30T12:40:23;24.10;62.70
19654;DHT22;9975;48.046;7.804;2023-07-30T12:42:49;23.90;62.10
19654;DHT22;9975;48.046;7.804;2023-07-30T12:45:14;23.90;62.90
19654;DHT22;9975;48.046;7.804;2023-07-30T12:47:40;23.70;62.90
19654;DHT22;9975;48.046;7.804;2023-07-30T12:50:06;23.70;63.50
19654;DHT22;9975;48.046;7.804;2023-07-30T12:52:33;23.60;63.30
19654;DHT22;9975;48.046;7.804;2023-07-30T12:54:59;23.50;62.90
19654;DHT22;9975;48.046;7.804;2023-07-30T12:57:24;23.50;63.30
19654;DHT22;9975;48.046;7.804;2023-07-30T12:59:50;23.20;63.70
19654;DHT22;9975;48.046;7.804;2023-07-30T13:02:16;23.20;63.90
19654;DHT22;9975;48.046;7.804;2023-07-30T13:04:41;23.10;64.80
19654;DHT22;9975;48.046;7.804;2023-07-30T13:07:07;23.20;65.00
19654;DHT22;9975;48.046;7.804;2023-07-30T13:09:32;23.20;64.60
19654;DHT22;9975;48.046;7.804;2023-07-30T13:11:58;23.20;64.50
19654;DHT22;9975;48.046;7.804;2023-07-30T13:14:24;23.10;64.40
19654;DHT22;9975;48.046;7.804;2023-07-30T13:16:49;23.10;64.50
19654;DHT22;9975;48.046;7.804;2023-07-30T13:19:15;23.30;64.20
19654;DHT22;9975;48.046;7.804;2023-07-30T13:21:40;23.50;62.70
19654;DHT22;9975;48.046;7.804;2023-07-30T13:24:07;23.70;63.60
19654;DHT22;9975;48.046;7.804;2023-07-30T13:26:34;23.50;62.20
19654;DHT22;9975;48.046;7.804;2023-07-30T13:29:00;23.40;60.80
19654;DHT22;9975;48.046;7.804;2023-07-30T13:31:25;23.50;62.50
19654;DHT22;9975;48.046;7.804;2023-07-30T13:33:51;23.40;61.70
19654;DHT22;9975;48.046;7.804;2023-07-30T13:36:17;23.30;62.70
19654;DHT22;9975;48.046;7.804;2023-07-30T13:38:43;23.30;62.50
19654;DHT22;9975;48.046;7.804;2023-07-30T13:41:09;23.10;61.30
19654;DHT22;9975;48.046;7.804;2023-07-30T13:43:35;23.00;61.80
19654;DHT22;9975;48.046;7.804;2023-07-30T13:46:00;22.90;60.60
19654;DHT22;9975;48.046;7.804;2023-07-30T13:48:26;22.90;61.10
19654;DHT22;9975;48.046;7.804;2023-07-30T13:50:52;22.90;60.00
19654;DHT22;9975;48.046;7.804;2023-07-30T13:53:18;23.00;60.00
19654;DHT22;9975;48.046;7.804;2023-07-30T13:55:44;23.10;59.00
19654;DHT22;9975;48.046;7.804;2023-07-30T13:58:10;23.00;58.00
19654;DHT22;9975;48.046;7.804;2023-07-30T14:00:35;23.20;58.40
19654;DHT22;9975;48.046;7.804;2023-07-30T14:03:01;23.20;57.80
19654;DHT22;9975;48.046;7.804;2023-07-30T14:05:26;23.20;58.20
19654;DHT22;9975;48.046;7.804;2023-07-30T14:07:55;23.20;59.40
19654;DHT22;9975;48.046;7.804;2023-07-30T14:10:24;23.30;62.60
19654;DHT22;9975;48.046;7.804;2023-07-30T14:12:50;23.40;61.90
19654;DHT22;9975;48.046;7.804;2023-07-30T14:15:16;23.30;57.60
19654;DHT22;9975;48.046;7.804;2023-07-30T14:17:42;23.40;57.60
19654;DHT22;9975;48.046;7.804;2023-07-30T14:20:08;23.60;57.20
19654;DHT22;9975;48.046;7.804;2023-07-30T14:22:35;23.90;56.70
19654;DHT22;9975;48.046;7.804;2023-07-30T14:25:04;24.10;55.70
19654;DHT22;9975;48.046;7.804;2023-07-30T14:27:30;24.10;52.80
19654;DHT22;9975;48.046;7.804;2023-07-30T14:29:55;24.20;55.50
19654;DHT22;9975;48.046;7.804;2023-07-30T14:32:21;24.40;56.90
19654;DHT22;9975;48.046;7.804;2023-07-30T14:34:47;24.40;54.20
19654;DHT22;9975;48.046;7.804;2023-07-30T14:37:12;24.30;53.70
19654;DHT22;9975;48.046;7.804;2023-07-30T14:39:38;24.30;53.80
19654;DHT22;9975;48.046;7.804;2023-07-30T14:42:04;24.50;52.30
19654;DHT22;9975;48.046;7.804;2023-07-30T14:44:30;24.40;51.80
19654;DHT22;9975;48.046;7.804;2023-07-30T14:46:56;24.50;52.30
19654;DHT22;9975;48.046;7.804;2023-07-30T14:49:23;24.70;51.40
19654;DHT22;9975;48.046;7.804;2023-07-30T14:51:49;24.80;52.20
19654;DHT22;9975;48.046;7.804;2023-07-30T14:54:17;24.90;50.70
19654;DHT22;9975;48.046;7.804;2023-07-30T14:56:43;24.90;50.50
19654;DHT22;9975;48.046;7.804;2023-07-30T14:59:09;24.70;50.20
19654;DHT22;9975;48.046;7.804;2023-07-30T15:01:35;24.50;48.90
19654;DHT22;9975;48.046;7.804;2023-07-30T15:04:01;24.30;48.30
19654;DHT22;9975;48.046;7.804;2023-07-30T15:06:26;24.30;48.90
19654;DHT22;9975;48.046;7.804;2023-07-30T15:08:55;24.40;49.00
19654;DHT22;9975;48.046;7.804;2023-07-30T15:11:20;24.60;48.40
19654;DHT22;9975;48.046;7.804;2023-07-30T15:13:48;24.50;48.10
19654;DHT22;9975;48.046;7.804;2023-07-30T15:16:14;24.70;47.80
19654;DHT22;9975;48.046;7.804;2023-07-30T15:18:41;24.90;47.70
19654;DHT22;9975;48.046;7.804;2023-07-30T15:21:10;25.20;46.60
19654;DHT22;9975;48.046;7.804;2023-07-30T15:23:35;25.20;46.30
19654;DHT22;9975;48.046;7.804;2023-07-30T15:26:01;25.50;45.50
19654;DHT22;9975;48.046;7.804;2023-07-30T15:28:28;25.70;46.00
19654;DHT22;9975;48.046;7.804;2023-07-30T15:30:54;26.00;45.10
19654;DHT22;9975;48.046;7.804;2023-07-30T15:33:20;26.00;44.80
19654;DHT22;9975;48.046;7.804;2023-07-30T15:35:45;25.70;43.70
19654;DHT22;9975;48.046;7.804;2023-07-30T15:38:13;25.00;44.30
19654;DHT22;9975;48.046;7.804;2023-07-30T15:40:39;25.00;45.60
19654;DHT22;9975;48.046;7.804;2023-07-30T15:43:05;25.20;44.50
19654;DHT22;9975;48.046;7.804;2023-07-30T15:45:30;25.20;44.50
19654;DHT22;9975;48.046;7.804;2023-07-30T15:47:56;25.00;43.90
19654;DHT22;9975;48.046;7.804;2023-07-30T15:50:23;25.10;43.70
19654;DHT22;9975;48.046;7.804;2023-07-30T15:52:52;25.10;43.90
19654;DHT22;9975;48.046;7.804;2023-07-30T15:55:17;25.00;43.90
19654;DHT22;9975;48.046;7.804;2023-07-30T15:57:43;25.20;45.00
19654;DHT22;9975;48.046;7.804;2023-07-30T16:00:09;25.30;44.80
19654;DHT22;9975;48.046;7.804;2023-07-30T16:02:35;25.50;44.30
19654;DHT22;9975;48.046;7.804;2023-07-30T16:05:01;25.40;43.70
19654;DHT22;9975;48.046;7.804;2023-07-30T16:07:28;25.20;43.60
19654;DHT22;9975;48.046;7.804;2023-07-30T16:09:53;25.30;44.00
19654;DHT22;9975;48.046;7.804;2023-07-30T16:12:19;25.50;43.60
19654;DHT22;9975;48.046;7.804;2023-07-30T16:14:45;25.40;43.50
19654;DHT22;9975;48.046;7.804;2023-07-30T16:17:10;25.30;43.60
19654;DHT22;9975;48.046;7.804;2023-07-30T16:19:36;25.30;43.20
19654;DHT22;9975;48.046;7.804;2023-07-30T16:22:02;25.20;43.60
19654;DHT22;9975;48.046;7.804;2023-07-30T16:24:28;25.40;43.50
19654;DHT22;9975;48.046;7.804;2023-07-30T16:26:53;25.40;43.90
19654;DHT22;9975;48.046;7.804;2023-07-30T16:29:19;25.50;43.30
19654;DHT22;9975;48.046;7.804;2023-07-30T16:31:44;25.10;42.70
19654;DHT22;9975;48.046;7.804;2023-07-30T16:34:10;25.10;43.20
19654;DHT22;9975;48.046;7.804;2023-07-30T16:36:36;25.30;42.60
19654;DHT22;9975;48.046;7.804;2023-07-30T16:39:02;25.40;43.10
19654;DHT22;9975;48.046;7.804;2023-07-30T16:41:29;25.30;42.70
19654;DHT22;9975;48.046;7.804;2023-07-30T16:43:55;25.40;42.40
19654;DHT22;9975;48.046;7.804;2023-07-30T16:46:20;25.40;42.50
19654;DHT22;9975;48.046;7.804;2023-07-30T16:48:46;25.40;42.50
19654;DHT22;9975;48.046;7.804;2023-07-30T16:51:12;25.10;42.00
19654;DHT22;9975;48.046;7.804;2023-07-30T16:53:38;24.80;42.40
19654;DHT22;9975;48.046;7.804;2023-07-30T16:56:11;24.70;43.30
19654;DHT22;9975;48.046;7.804;2023-07-30T16:58:37;24.40;42.10
19654;DHT22;9975;48.046;7.804;2023-07-30T17:01:03;24.30;41.90
19654;DHT22;9975;48.046;7.804;2023-07-30T17:03:30;24.30;42.10
19654;DHT22;9975;48.046;7.804;2023-07-30T17:06:01;24.30;41.50
19654;DHT22;9975;48.046;7.804;2023-07-30T17:08:27;24.30;41.70
19654;DHT22;9975;48.046;7.804;2023-07-30T17:10:53;24.30;41.80
19654;DHT22;9975;48.046;7.804;2023-07-30T17:13:20;24.40;43.00
19654;DHT22;9975;48.046;7.804;2023-07-30T17:15:46;24.40;43.50
19654;DHT22;9975;48.046;7.804;2023-07-30T17:18:12;24.60;44.10
19654;DHT22;9975;48.046;7.804;2023-07-30T17:20:40;24.50;44.20
19654;DHT22;9975;48.046;7.804;2023-07-30T17:23:06;24.50;44.30
19654;DHT22;9975;48.046;7.804;2023-07-30T17:25:31;24.40;44.40
19654;DHT22;9975;48.046;7.804;2023-07-30T17:27:57;24.40;45.20
19654;DHT22;9975;48.046;7.804;2023-07-30T17:30:22;24.40;45.30
19654;DHT22;9975;48.046;7.804;2023-07-30T17:32:48;24.30;45.30
19654;DHT22;9975;48.046;7.804;2023-07-30T17:35:14;24.30;46.20
19654;DHT22;9975;48.046;7.804;2023-07-30T17:37:39;24.20;45.80